Gisele A — 9HA3562 — position and weather

sailwx.info

Track history (hours):
 
Tides and Currents Weather Stations Pressure Air Temp Water Temp Dewpoint Dewpoint Depression Visibility Wind Speed Wind Dir Waves Ship Positions

Gisele A

Last reported at 2017-Nov-20 00:29 UTC. Time now 2017-Nov-20 12:00 UTC.
Position N 43°21' E 004°58'.

Length 208 m; draft 8.7 m.

Type: Ship (hazmat cat A). MMSI: 229735000.

Date/timePositionNaut miles runAvg speedWind from/ knotsBaromVisibWave heightAir tempDewpointWater temp
2017-Nov-20 00:29N 43°21' E 004°58'175 4.9
2017-Nov-18 12:51N 41°18' E 002°11'0 0.0
2017-Nov-18 03:35N 41°18' E 002°11'4 9.3
2017-Nov-18 03:09N 41°14' E 002°09'211.7
2017-Nov-18 02:59N 41°13' E 002°08'611.8
2017-Nov-18 02:30N 41°09' E 002°03'611.9
2017-Nov-18 02:00N 41°04' E 001°59'611.8
2017-Nov-18 01:30N 40°59' E 001°54'612.2
2017-Nov-18 01:00N 40°54' E 001°49'612.3
2017-Nov-18 00:30N 40°49' E 001°44'612.5
2017-Nov-18 00:00N 40°44' E 001°39'  
2017-Nov-15 01:12N 38°04' W 000°04'312.5
2017-Nov-15 00:59N 38°02' W 000°06'912.2
2017-Nov-15 00:16N 37°54' W 000°12'412.2
2017-Nov-14 23:56N 37°51' W 000°15'612.2
2017-Nov-14 23:27N 37°46' W 000°19'512.2
2017-Nov-14 23:00N 37°42' W 000°23'612.2
2017-Nov-14 22:30N 37°37' W 000°27'1112.1
2017-Nov-14 21:34N 37°29' W 000°38'112.3
2017-Nov-14 21:30N 37°28' W 000°39'612.2
2017-Nov-14 21:00N 37°25' W 000°45'612.2
2017-Nov-14 20:30N 37°21' W 000°51'612.1
2017-Nov-14 20:00N 37°17' W 000°57'612.1
2017-Nov-14 19:28N 37°12' W 001°02'21312.1
2017-Nov-14 01:53N 36°01' W 005°12'615.0
2017-Nov-14 01:30N 35°60' W 005°18'714.4
2017-Nov-14 01:00N 35°57' W 005°27'26 0.6
2017-Nov-12 07:14N 36°17' W 005°05'0 0.2
2017-Nov-12 07:00N 36°17' W 005°05'0 0.4
2017-Nov-12 06:31N 36°17' W 005°05'0 0.6
2017-Nov-12 05:58N 36°17' W 005°05'  
Track history (hours):
 
Tides and Currents Weather Stations Pressure Air Temp Water Temp Dewpoint Dewpoint Depression Visibility Wind Speed Wind Dir Waves Ship Positions

Gisele A

Last reported at 2017-Nov-20 00:29 UTC. Time now 2017-Nov-20 12:00 UTC.
Position N 43°21' E 004°58'.

Length 208 m; draft 8.7 m.

Type: Ship (hazmat cat A). MMSI: 229735000.

Date/timePositionNaut miles runAvg speedWind from/ knotsBaromVisibWave heightAir tempDewpointWater temp
2017-Nov-20 00:29N 43°21' E 004°58'175 4.9
2017-Nov-18 12:51N 41°18' E 002°11'0 0.0
2017-Nov-18 03:35N 41°18' E 002°11'4 9.3
2017-Nov-18 03:09N 41°14' E 002°09'211.7
2017-Nov-18 02:59N 41°13' E 002°08'611.8
2017-Nov-18 02:30N 41°09' E 002°03'611.9
2017-Nov-18 02:00N 41°04' E 001°59'611.8
2017-Nov-18 01:30N 40°59' E 001°54'612.2
2017-Nov-18 01:00N 40°54' E 001°49'612.3
2017-Nov-18 00:30N 40°49' E 001°44'612.5
2017-Nov-18 00:00N 40°44' E 001°39'  
2017-Nov-15 01:12N 38°04' W 000°04'312.5
2017-Nov-15 00:59N 38°02' W 000°06'912.2
2017-Nov-15 00:16N 37°54' W 000°12'412.2
2017-Nov-14 23:56N 37°51' W 000°15'612.2
2017-Nov-14 23:27N 37°46' W 000°19'512.2
2017-Nov-14 23:00N 37°42' W 000°23'612.2
2017-Nov-14 22:30N 37°37' W 000°27'1112.1
2017-Nov-14 21:34N 37°29' W 000°38'112.3
2017-Nov-14 21:30N 37°28' W 000°39'612.2
2017-Nov-14 21:00N 37°25' W 000°45'612.2
2017-Nov-14 20:30N 37°21' W 000°51'612.1
2017-Nov-14 20:00N 37°17' W 000°57'612.1
2017-Nov-14 19:28N 37°12' W 001°02'21312.1
2017-Nov-14 01:53N 36°01' W 005°12'615.0
2017-Nov-14 01:30N 35°60' W 005°18'714.4
2017-Nov-14 01:00N 35°57' W 005°27'26 0.6
2017-Nov-12 07:14N 36°17' W 005°05'0 0.2
2017-Nov-12 07:00N 36°17' W 005°05'0 0.4
2017-Nov-12 06:31N 36°17' W 005°05'0 0.6
2017-Nov-12 05:58N 36°17' W 005°05'  

Dump ship's entire track history